Time;durP1;ratioP1;P1;durP2;ratioP2;P2;SDS_P1;SDS_P2;PMS_P1;PMS_P2;Temp;Humidity;BMP_temperature;BMP_pressure;BME280_temperature;BME280_humidity;BME280_pressure;Samples;Min_cycle;Max_cycle;Signal;HPM_P1;HPM_P2
2022/07/09 00:00:55;;;;;;;6.75;1.90;;;;;;;14.07;100.00;101926.00;5063929;28;20423;-85
2022/07/09 00:03:28;;;;;;;7.30;2.08;;;;;;;14.04;100.00;101921.03;5070373;28;21458;-85
2022/07/09 00:05:58;;;;;;;3.85;1.50;;;;;;;14.09;100.00;101929.25;5051155;28;20435;-82
2022/07/09 00:08:31;;;;;;;6.23;1.90;;;;;;;14.15;100.00;101915.59;5075773;28;20413;-85
2022/07/09 00:11:04;;;;;;;6.93;2.13;;;;;;;14.17;100.00;101922.44;5053989;28;20437;-86
2022/07/09 00:13:38;;;;;;;7.30;1.92;;;;;;;14.12;100.00;101916.94;5060938;28;20974;-84
2022/07/09 00:16:11;;;;;;;4.30;1.60;;;;;;;14.07;100.00;101906.00;5059200;28;20422;-86
2022/07/09 00:18:44;;;;;;;5.97;1.75;;;;;;;14.06;100.00;101909.84;5057046;28;20424;-85
2022/07/09 00:21:19;;;;;;;6.63;1.73;;;;;;;14.10;100.00;101910.94;5071845;28;20479;-84
2022/07/09 00:23:52;;;;;;;6.80;2.05;;;;;;;14.06;100.00;101905.19;5054670;28;20948;-85
2022/07/09 00:26:20;;;;;;;8.45;1.98;;;;;;;14.08;100.00;101910.38;5048499;28;20421;-85
2022/07/09 00:28:53;;;;;;;6.28;2.10;;;;;;;14.06;100.00;101894.22;5061703;28;20430;-86
2022/07/09 00:31:27;;;;;;;5.10;1.60;;;;;;;14.01;100.00;101899.69;5072593;28;20403;-85
2022/07/09 00:34:00;;;;;;;6.75;1.88;;;;;;;14.02;100.00;101904.09;5047495;28;20427;-85
2022/07/09 00:36:36;;;;;;;7.72;1.90;;;;;;;14.02;100.00;101901.34;5064358;28;20433;-85
2022/07/09 00:39:09;;;;;;;5.95;1.80;;;;;;;13.98;100.00;101899.44;5050554;28;20427;-85
2022/07/09 00:41:42;;;;;;;5.73;1.87;;;;;;;14.06;100.00;101896.16;5071346;28;20435;-85
2022/07/09 00:44:15;;;;;;;5.70;1.63;;;;;;;14.05;100.00;101898.06;5079509;28;20416;-86
2022/07/09 00:46:44;;;;;;;4.85;1.80;;;;;;;14.04;100.00;101893.66;5053786;28;20435;-83
2022/07/09 00:49:17;;;;;;;7.35;1.95;;;;;;;13.97;100.00;101886.84;5041817;28;20416;-85
2022/07/09 00:51:52;;;;;;;6.70;1.90;;;;;;;13.89;100.00;101886.28;5063058;28;20784;-85
2022/07/09 00:54:26;;;;;;;9.93;2.00;;;;;;;13.85;100.00;101881.63;5048475;28;20425;-85
2022/07/09 00:56:54;;;;;;;7.15;2.05;;;;;;;13.86;100.00;101880.53;5059987;28;20431;-85
2022/07/09 00:59:23;;;;;;;6.65;1.70;;;;;;;13.81;100.00;101877.78;5057757;28;20420;-85
2022/07/09 01:01:52;;;;;;;5.57;1.80;;;;;;;13.78;100.00;101880.00;5083900;28;20927;-84
2022/07/09 01:04:21;;;;;;;5.93;1.70;;;;;;;13.70;100.00;101871.47;5051286;28;20431;-84
2022/07/09 01:07:01;;;;;;;7.00;2.10;;;;;;;13.68;100.00;101888.16;5043965;28;20978;-84
2022/07/09 01:09:34;;;;;;;5.68;1.77;;;;;;;13.74;100.00;101889.84;5070300;28;20428;-84
2022/07/09 01:12:08;;;;;;;5.15;1.75;;;;;;;13.68;100.00;101885.44;5054093;28;20418;-84
2022/07/09 01:14:41;;;;;;;4.85;1.80;;;;;;;13.64;100.00;101889.81;5051720;28;20893;-84
2022/07/09 01:17:14;;;;;;;5.57;1.98;;;;;;;13.68;100.00;101890.09;5081399;28;21116;-84
2022/07/09 01:19:48;;;;;;;5.82;2.00;;;;;;;13.65;100.00;101887.91;5053295;28;20444;-85
2022/07/09 01:22:22;;;;;;;6.50;2.10;;;;;;;13.60;100.00;101884.06;5060390;28;20418;-84
2022/07/09 01:24:57;;;;;;;7.28;1.90;;;;;;;13.60;100.00;101889.53;5062813;28;20428;-85
2022/07/09 01:27:25;;;;;;;7.00;2.40;;;;;;;13.60;100.00;101883.22;5051540;28;20923;-84
2022/07/09 01:29:59;;;;;;;6.47;2.08;;;;;;;13.60;100.00;101886.81;5059177;28;20424;-85
2022/07/09 01:32:32;;;;;;;7.07;2.28;;;;;;;13.54;100.00;101885.13;5060012;28;20427;-83
2022/07/09 01:35:06;;;;;;;6.50;2.08;;;;;;;13.49;100.00;101876.94;5050151;28;20506;-85
2022/07/09 01:37:40;;;;;;;7.20;2.03;;;;;;;13.53;100.00;101896.34;5068246;28;20426;-84
2022/07/09 01:40:10;;;;;;;6.43;2.20;;;;;;;13.52;100.00;101881.88;5044727;28;20448;-84
2022/07/09 01:42:38;;;;;;;7.47;2.08;;;;;;;13.66;100.00;101873.13;5056456;28;20771;-84
2022/07/09 01:45:11;;;;;;;5.90;1.87;;;;;;;13.61;100.00;101863.00;5063807;28;20485;-83
2022/07/09 01:47:45;;;;;;;5.38;1.83;;;;;;;13.56;100.00;101872.03;5043642;28;20417;-84
2022/07/09 01:50:18;;;;;;;8.50;2.13;;;;;;;13.59;100.00;101859.72;5061948;28;20947;-84
2022/07/09 01:52:52;;;;;;;6.60;2.10;;;;;;;13.61;100.00;101858.34;5051626;28;20435;-84
2022/07/09 01:55:25;;;;;;;7.75;2.50;;;;;;;13.66;100.00;101860.28;5072704;28;20507;-84
2022/07/09 01:57:58;;;;;;;7.35;2.20;;;;;;;13.59;100.00;101848.78;5072119;28;20431;-83
2022/07/09 02:00:27;;;;;;;8.02;2.40;;;;;;;13.65;100.00;101855.88;5051232;28;20427;-85
2022/07/09 02:03:01;;;;;;;8.07;2.40;;;;;;;13.57;100.00;101859.16;5080102;28;20429;-85
2022/07/09 02:05:34;;;;;;;8.37;2.40;;;;;;;13.57;100.00;101848.22;5048628;28;20436;-84
2022/07/09 02:08:08;;;;;;;9.10;2.55;;;;;;;13.58;100.00;101847.13;5050577;28;20431;-84
2022/07/09 02:10:42;;;;;;;5.90;2.30;;;;;;;13.58;100.00;101845.22;5058228;28;20434;-84
2022/07/09 02:13:15;;;;;;;7.32;2.50;;;;;;;13.55;100.00;101840.28;5068072;28;20430;-84
2022/07/09 02:15:43;;;;;;;8.90;2.28;;;;;;;13.60;100.00;101840.31;5077690;28;20424;-84
2022/07/09 02:18:16;;;;;;;8.23;2.40;;;;;;;13.58;100.00;101836.19;5056501;28;20429;-85
2022/07/09 02:20:50;;;;;;;11.68;2.67;;;;;;;13.56;100.00;101827.44;5067470;28;20414;-85
2022/07/09 02:23:24;;;;;;;10.15;2.70;;;;;;;13.64;100.00;101815.94;5068156;28;20899;-85
2022/07/09 02:25:57;;;;;;;10.07;2.72;;;;;;;13.68;100.00;101816.22;5072825;28;20426;-85
2022/07/09 02:28:31;;;;;;;8.70;2.33;;;;;;;13.71;100.00;101816.53;5067354;28;20427;-85
2022/07/09 02:31:04;;;;;;;7.22;2.40;;;;;;;13.73;100.00;101827.19;5063526;28;20427;-84
2022/07/09 02:33:37;;;;;;;8.15;2.50;;;;;;;13.61;100.00;101822.78;5077906;28;20427;-85
2022/07/09 02:36:10;;;;;;;5.82;2.30;;;;;;;13.77;100.00;101826.34;5068810;28;20934;-85
2022/07/09 02:38:45;;;;;;;6.45;2.47;;;;;;;13.62;100.00;101826.34;5060191;28;20423;-85
2022/07/09 02:41:13;;;;;;;8.38;2.53;;;;;;;13.66;100.00;101821.97;5064309;28;20400;-84
2022/07/09 02:43:42;;;;;;;9.18;2.90;;;;;;;13.70;100.00;101825.81;5065671;28;20443;-84
2022/07/09 02:46:16;;;;;;;10.25;2.80;;;;;;;13.67;100.00;101814.59;5067729;28;20429;-85
2022/07/09 02:48:49;;;;;;;7.35;2.65;;;;;;;13.71;100.00;101822.00;5068939;28;20430;-85
2022/07/09 02:51:22;;;;;;;10.18;2.58;;;;;;;13.68;100.00;101819.78;5070331;28;20436;-84
2022/07/09 02:53:57;;;;;;;6.22;2.70;;;;;;;13.67;100.00;101825.53;5067383;28;20431;-82
2022/07/09 02:56:25;;;;;;;9.18;2.70;;;;;;;13.69;100.00;101823.34;5061545;28;20425;-85
2022/07/09 02:58:58;;;;;;;6.63;2.60;;;;;;;13.58;100.00;101817.06;5067462;28;20412;-84
2022/07/09 03:01:31;;;;;;;9.43;2.88;;;;;;;13.69;100.00;101826.91;5065857;28;20420;-84
2022/07/09 03:04:05;;;;;;;8.90;2.67;;;;;;;13.71;100.00;101823.88;5068934;28;20423;-85
2022/07/09 03:06:38;;;;;;;10.02;2.80;;;;;;;13.66;100.00;101813.78;5061512;28;20419;-84
2022/07/09 03:09:13;;;;;;;10.75;2.90;;;;;;;13.69;100.00;101818.69;5065738;28;20431;-85
2022/07/09 03:11:41;;;;;;;7.72;2.78;;;;;;;13.79;100.00;101812.41;5071096;28;20889;-85
2022/07/09 03:14:14;;;;;;;8.38;2.60;;;;;;;13.71;100.00;101804.75;5070831;28;20506;-84
2022/07/09 03:16:47;;;;;;;8.65;2.65;;;;;;;13.85;100.00;101815.97;5067816;28;20442;-84
2022/07/09 03:19:15;;;;;;;10.45;2.90;;;;;;;13.82;100.00;101808.31;5066248;28;20426;-84
2022/07/09 03:21:48;;;;;;;7.47;2.63;;;;;;;13.78;100.00;101803.38;5068260;28;20427;-85
2022/07/09 03:24:23;;;;;;;9.60;2.92;;;;;;;13.77;100.00;101801.72;5065923;28;20887;-85
2022/07/09 03:26:51;;;;;;;9.00;2.83;;;;;;;13.78;100.00;101791.59;5065309;28;20416;-84
2022/07/09 03:29:24;;;;;;;7.80;2.88;;;;;;;13.76;100.00;101782.84;5067396;28;20439;-84
2022/07/09 03:31:57;;;;;;;9.60;3.00;;;;;;;13.77;100.00;101782.59;5068988;28;20423;-83
2022/07/09 03:34:31;;;;;;;7.30;2.72;;;;;;;13.70;100.00;101775.72;5066194;28;20438;-84
2022/07/09 03:37:04;;;;;;;9.10;2.87;;;;;;;13.73;100.00;101775.22;5074467;28;20501;-85
2022/07/09 03:39:34;;;;;;;6.32;2.85;;;;;;;13.67;100.00;101782.59;5069348;28;20896;-85
2022/07/09 03:42:03;;;;;;;9.60;3.05;;;;;;;13.74;100.00;101772.19;5066518;28;20421;-83
2022/07/09 03:44:36;;;;;;;7.43;2.70;;;;;;;13.74;100.00;101774.94;5068849;28;21682;-84
2022/07/09 03:47:09;;;;;;;8.88;2.70;;;;;;;13.66;100.00;101772.75;5071743;28;21037;-81
2022/07/09 03:49:37;;;;;;;10.65;3.03;;;;;;;13.70;100.00;101762.91;5072442;28;20937;-84
2022/07/09 03:52:11;;;;;;;9.20;2.47;;;;;;;13.72;100.00;101774.38;5068590;28;20419;-83
2022/07/09 03:54:46;;;;;;;9.18;2.78;;;;;;;13.75;100.00;101768.38;5068183;28;20430;-84
2022/07/09 03:57:14;;;;;;;8.25;2.90;;;;;;;13.81;100.00;101769.19;5064239;28;20419;-84
2022/07/09 03:59:47;;;;;;;8.18;2.67;;;;;;;13.77;100.00;101773.56;5083397;28;21224;-85
2022/07/09 04:02:21;;;;;;;7.32;2.80;;;;;;;13.83;100.00;101780.66;5069139;28;20431;-84
2022/07/09 04:04:56;;;;;;;8.63;2.72;;;;;;;13.87;100.00;101775.47;5071474;28;20420;-83
2022/07/09 04:07:29;;;;;;;7.13;2.80;;;;;;;13.83;100.00;101777.94;5068114;28;20534;-84
2022/07/09 04:09:59;;;;;;;8.75;2.60;;;;;;;13.87;100.00;101775.47;5070365;28;20431;-84
2022/07/09 04:12:27;;;;;;;9.93;2.92;;;;;;;13.85;100.00;101773.00;5068849;28;20438;-82
2022/07/09 04:15:00;;;;;;;10.35;2.85;;;;;;;13.75;100.00;101765.63;5068684;28;20427;-82
2022/07/09 04:17:34;;;;;;;10.75;3.10;;;;;;;13.63;100.00;101767.00;5065413;28;20437;-83
2022/07/09 04:20:08;;;;;;;7.63;2.73;;;;;;;13.67;100.00;101768.91;5070130;28;20431;-82
2022/07/09 04:22:41;;;;;;;8.70;3.08;;;;;;;13.71;100.00;101764.53;5069067;28;20424;-83
2022/07/09 04:25:16;;;;;;;8.50;3.13;;;;;;;13.71;100.00;101761.81;5059041;28;20428;-82
2022/07/09 04:27:49;;;;;;;10.32;3.30;;;;;;;13.72;100.00;101757.16;5067593;28;20427;-83
2022/07/09 04:30:17;;;;;;;10.67;3.30;;;;;;;13.70;100.00;101771.09;5071481;28;21089;-82
2022/07/09 04:32:51;;;;;;;8.93;3.20;;;;;;;13.82;100.00;101768.06;5084077;28;20419;-84
2022/07/09 04:35:24;;;;;;;10.83;3.33;;;;;;;13.82;100.00;101759.84;5072486;28;20419;-83
2022/07/09 04:37:57;;;;;;;11.02;3.50;;;;;;;13.93;100.00;101757.94;5072189;28;20502;-83
2022/07/09 04:40:32;;;;;;;10.38;3.60;;;;;;;13.88;100.00;101764.25;5070169;28;20417;-83
2022/07/09 04:43:05;;;;;;;9.95;3.80;;;;;;;13.99;100.00;101759.59;5070842;28;20428;-82
2022/07/09 04:45:38;;;;;;;10.02;3.40;;;;;;;13.92;100.00;101756.28;5070442;28;20420;-82
2022/07/09 04:48:07;;;;;;;10.25;4.10;;;;;;;13.97;100.00;101747.28;5068737;28;20424;-85
2022/07/09 04:50:40;;;;;;;10.53;4.27;;;;;;;13.97;100.00;101741.78;5079179;28;20504;-84
2022/07/09 04:53:13;;;;;;;13.43;4.30;;;;;;;14.01;100.00;101751.91;5053131;28;20431;-84
2022/07/09 04:55:48;;;;;;;8.65;4.25;;;;;;;13.89;100.00;101741.28;5067386;28;20404;-83
2022/07/09 04:58:16;;;;;;;10.55;3.95;;;;;;;13.98;100.00;101749.72;5072025;28;20415;-83
2022/07/09 05:00:49;;;;;;;12.73;4.03;;;;;;;14.07;100.00;101755.44;5055586;28;20435;-84
2022/07/09 05:03:17;;;;;;;9.83;4.03;;;;;;;14.09;100.00;101756.00;5059222;28;20622;-84
2022/07/09 05:05:51;;;;;;;10.82;3.75;;;;;;;14.14;100.00;101744.22;5076022;28;20417;-83
2022/07/09 05:08:19;;;;;;;10.60;3.80;;;;;;;14.05;100.00;101733.81;5055202;28;20416;-83
2022/07/09 05:10:54;;;;;;;8.57;3.95;;;;;;;14.13;100.00;101746.13;5068732;28;20411;-82
2022/07/09 05:13:22;;;;;;;8.85;3.40;;;;;;;14.18;100.00;101748.03;5071716;28;20417;-83
2022/07/09 05:15:55;;;;;;;8.27;3.40;;;;;;;14.15;100.00;101738.44;5058343;28;20435;-83
2022/07/09 05:18:30;;;;;;;9.88;3.55;;;;;;;14.25;100.00;101738.44;5056156;28;20436;-83
2022/07/09 05:21:04;;;;;;;8.95;3.30;;;;;;;14.33;100.00;101731.56;5062269;28;20786;-83
2022/07/09 05:23:32;;;;;;;8.32;3.05;;;;;;;14.44;100.00;101738.66;5068389;28;20426;-84
2022/07/09 05:26:07;;;;;;;7.90;3.53;;;;;;;14.45;100.00;101732.06;5067972;28;20422;-82
2022/07/09 05:28:40;;;;;;;10.82;3.50;;;;;;;14.48;100.00;101727.13;5060851;28;20422;-83
2022/07/09 05:31:08;;;;;;;8.60;3.00;;;;;;;14.57;100.00;101730.91;5055499;28;20892;-82
2022/07/09 05:33:41;;;;;;;8.98;3.10;;;;;;;14.60;100.00;101724.88;5076194;28;20417;-83
2022/07/09 05:36:14;;;;;;;8.32;2.88;;;;;;;14.60;100.00;101722.16;5053287;28;20435;-83
2022/07/09 05:38:48;;;;;;;6.53;2.70;;;;;;;14.62;100.00;101708.97;5058273;28;20423;-86
2022/07/09 05:41:23;;;;;;;6.97;2.83;;;;;;;14.82;100.00;101723.69;5053116;28;20423;-82
2022/07/09 05:43:56;;;;;;;8.80;2.70;;;;;;;14.85;100.00;101725.88;5055096;28;20915;-83
2022/07/09 05:46:29;;;;;;;10.73;2.90;;;;;;;14.83;100.00;101719.84;5055986;28;20420;-83
2022/07/09 05:49:02;;;;;;;10.40;2.97;;;;;;;14.84;100.00;101713.28;5044557;28;20414;-82
2022/07/09 05:51:36;;;;;;;6.25;2.53;;;;;;;14.89;100.00;101713.25;5078401;28;20433;-84
2022/07/09 05:54:09;;;;;;;6.18;2.50;;;;;;;14.93;100.00;101715.13;5049144;28;20787;-83
2022/07/09 05:56:39;;;;;;;6.13;2.67;;;;;;;14.96;100.00;101711.81;5062927;28;20770;-83
2022/07/09 05:59:07;;;;;;;7.32;2.47;;;;;;;14.94;100.00;101714.03;5067074;28;20826;-83
2022/07/09 06:01:42;;;;;;;6.95;2.50;;;;;;;14.98;100.00;101717.00;5069281;28;20418;-83
2022/07/09 06:04:15;;;;;;;5.90;2.55;;;;;;;14.96;100.00;101730.19;5075592;28;20880;-85
2022/07/09 06:06:48;;;;;;;6.63;2.50;;;;;;;15.07;100.00;101712.56;5061504;28;20420;-81
2022/07/09 06:09:22;;;;;;;6.90;2.40;;;;;;;15.08;100.00;101713.38;5061119;28;20427;-82
2022/07/09 06:11:56;;;;;;;5.50;2.28;;;;;;;15.05;100.00;101722.19;5070713;28;20419;-82
2022/07/09 06:14:24;;;;;;;6.78;2.45;;;;;;;15.10;100.00;101720.22;5045615;28;20431;-83
2022/07/09 06:16:59;;;;;;;4.75;2.17;;;;;;;15.20;100.00;101718.50;5066253;28;20435;-81
2022/07/09 06:19:32;;;;;;;6.43;2.15;;;;;;;15.13;100.00;101711.44;5064228;28;20424;-81
2022/07/09 06:22:05;;;;;;;6.50;2.40;;;;;;;15.25;100.00;101713.00;5066687;28;20934;-82
2022/07/09 06:24:34;;;;;;;7.15;2.22;;;;;;;15.35;100.00;101712.91;5065182;28;20440;-82
2022/07/09 06:27:04;;;;;;;5.80;2.40;;;;;;;15.37;100.00;101710.69;5068606;28;20423;-83
2022/07/09 06:29:32;;;;;;;6.40;2.30;;;;;;;15.46;100.00;101714.44;5069302;28;20412;-80
2022/07/09 06:32:06;;;;;;;4.38;2.10;;;;;;;15.60;100.00;101709.09;5070894;28;20427;-81
2022/07/09 06:34:34;;;;;;;5.43;2.20;;;;;;;15.77;100.00;101703.19;5070824;28;20414;-82
2022/07/09 06:37:08;;;;;;;7.82;2.50;;;;;;;15.79;100.00;101703.75;5061560;28;20435;-82
2022/07/09 06:39:48;;;;;;;3.55;2.00;;;;;;;15.97;100.00;101704.13;5068740;28;20428;-82
2022/07/09 06:42:19;;;;;;;5.18;2.10;;;;;;;16.12;100.00;101701.19;5069428;28;20423;-84
2022/07/09 06:44:59;;;;;;;4.78;2.00;;;;;;;16.14;100.00;101692.66;5068643;28;20451;-80
2022/07/09 06:47:33;;;;;;;6.05;2.08;;;;;;;16.15;100.00;101694.31;5067577;28;20424;-83
2022/07/09 06:50:06;;;;;;;3.75;1.52;;;;;;;16.30;100.00;101690.56;5079958;28;20428;-82
2022/07/09 06:52:34;;;;;;;5.80;1.98;;;;;;;16.23;100.00;101688.16;5074363;28;20422;-83
2022/07/09 06:55:03;;;;;;;6.53;2.00;;;;;;;16.27;100.00;101693.91;5062002;28;20457;-84
2022/07/09 06:57:38;;;;;;;5.40;1.80;;;;;;;16.22;100.00;101699.44;5062066;28;20420;-84
2022/07/09 07:00:12;;;;;;;4.05;1.60;;;;;;;16.10;100.00;101697.09;5088867;28;20435;-83
2022/07/09 07:02:40;;;;;;;6.72;3.05;;;;;;;16.20;100.00;101696.16;5058886;28;20432;-84
2022/07/09 07:05:13;;;;;;;4.35;1.70;;;;;;;16.19;100.00;101689.88;5059210;28;20425;-83
2022/07/09 07:07:42;;;;;;;5.65;1.90;;;;;;;16.15;100.00;101689.63;5056428;28;20428;-82
2022/07/09 07:10:15;;;;;;;4.45;1.88;;;;;;;16.16;100.00;101695.94;5056001;28;20413;-83
2022/07/09 07:12:51;;;;;;;5.72;2.10;;;;;;;16.05;100.00;101689.75;5075200;28;20425;-83
2022/07/09 07:15:25;;;;;;;4.07;1.80;;;;;;;16.05;100.00;101687.00;5069231;28;20419;-84
2022/07/09 07:17:53;;;;;;;5.60;1.60;;;;;;;16.14;100.00;101693.50;5067012;28;20424;-84
2022/07/09 07:20:26;;;;;;;3.95;1.70;;;;;;;16.11;100.00;101690.50;5067539;28;20427;-83
2022/07/09 07:22:59;;;;;;;4.70;1.60;;;;;;;16.18;100.00;101693.72;5068443;28;20423;-84
2022/07/09 07:25:32;;;;;;;7.10;3.22;;;;;;;16.38;100.00;101695.41;5048537;28;20436;-83
2022/07/09 07:28:07;;;;;;;4.93;2.07;;;;;;;16.47;100.00;101692.81;5066153;28;20905;-83
2022/07/09 07:30:40;;;;;;;6.10;1.73;;;;;;;16.48;100.00;101689.75;5063580;28;20431;-82
2022/07/09 07:33:08;;;;;;;4.13;1.90;;;;;;;16.51;100.00;101690.28;5065076;28;20428;-84
2022/07/09 07:35:42;;;;;;;3.22;1.67;;;;;;;16.65;100.00;101688.44;5072149;28;20430;-84
2022/07/09 07:38:15;;;;;;;3.33;1.75;;;;;;;16.66;100.00;101681.84;5070273;28;20956;-83
2022/07/09 07:40:48;;;;;;;3.10;1.50;;;;;;;16.54;100.00;101682.25;5057542;28;20501;-81
2022/07/09 07:43:23;;;;;;;4.75;1.75;;;;;;;16.41;100.00;101675.56;5047819;28;20432;-84
2022/07/09 07:45:51;;;;;;;2.28;1.52;;;;;;;16.35;100.00;101687.75;5068807;28;20398;-82
2022/07/09 07:48:19;;;;;;;2.88;1.60;;;;;;;16.15;100.00;101684.13;5069359;28;20418;-80
2022/07/09 07:50:52;;;;;;;3.83;1.77;;;;;;;16.02;100.00;101684.00;5070035;28;20436;-83
2022/07/09 07:53:26;;;;;;;5.05;1.95;;;;;;;16.03;100.00;101675.47;5048376;28;20439;-83
2022/07/09 07:55:59;;;;;;;4.70;2.17;;;;;;;15.95;100.00;101682.44;5054874;28;20430;-84
2022/07/09 07:58:35;;;;;;;4.30;1.88;;;;;;;15.98;100.00;101681.06;5072447;28;21051;-82
2022/07/09 08:01:08;;;;;;;6.18;2.03;;;;;;;15.97;100.00;101684.91;5084990;28;20408;-84
2022/07/09 08:03:41;;;;;;;4.85;2.10;;;;;;;16.17;100.00;101670.09;5066779;28;20427;-83
2022/07/09 08:06:14;;;;;;;7.00;2.25;;;;;;;16.17;100.00;101672.84;5069951;28;20415;-83
2022/07/09 08:08:47;;;;;;;3.67;1.85;;;;;;;16.27;100.00;101666.44;5054551;28;20929;-82
2022/07/09 08:11:21;;;;;;;3.90;1.80;;;;;;;16.49;100.00;101674.09;5081507;28;20432;-82
2022/07/09 08:13:53;;;;;;;3.40;1.90;;;;;;;16.60;100.00;101667.34;5045375;28;20433;-81
2022/07/09 08:16:26;;;;;;;3.67;1.70;;;;;;;16.72;100.00;101668.84;5079307;28;20427;-82
2022/07/09 08:18:54;;;;;;;18.02;9.40;;;;;;;16.87;100.00;101665.84;5073365;28;20879;-80
2022/07/09 08:21:27;;;;;;;4.03;1.80;;;;;;;16.94;100.00;101662.75;5065503;28;20773;-82
2022/07/09 08:24:04;;;;;;;3.67;1.67;;;;;;;17.17;100.00;101663.75;5049163;28;20428;-81
2022/07/09 08:26:32;;;;;;;3.50;1.70;;;;;;;17.22;100.00;101655.44;5057386;28;20432;-81
2022/07/09 08:29:02;;;;;;;3.90;1.60;;;;;;;17.14;100.00;101651.44;5049285;28;20431;-82
2022/07/09 08:31:30;;;;;;;4.70;1.70;;;;;;;17.29;100.00;101653.09;5067553;28;20440;-83
2022/07/09 08:33:58;;;;;;;5.38;1.70;;;;;;;17.54;100.00;101652.94;5071276;28;20426;-84
2022/07/09 08:36:31;;;;;;;4.50;1.60;;;;;;;17.62;100.00;101661.34;5076840;28;20486;-84
2022/07/09 08:39:05;;;;;;;3.33;1.42;;;;;;;17.72;100.00;101643.81;5070405;28;20905;-83
2022/07/09 08:41:33;;;;;;;5.15;1.60;;;;;;;17.80;100.00;101656.84;5055798;28;20428;-84
2022/07/09 08:44:11;;;;;;;3.65;1.30;;;;;;;18.06;100.00;101645.34;5067327;28;20421;-84
2022/07/09 08:46:40;;;;;;;3.10;1.40;;;;;;;18.11;100.00;101658.22;5067462;28;20423;-83
2022/07/09 08:49:16;;;;;;;2.50;1.20;;;;;;;18.32;100.00;101636.53;5067747;28;20772;-86
2022/07/09 08:51:51;;;;;;;3.58;1.45;;;;;;;18.42;100.00;101630.00;5063750;28;20427;-83
2022/07/09 08:54:24;;;;;;;3.05;1.27;;;;;;;18.59;100.00;101632.91;5062824;28;20447;-82
2022/07/09 08:56:57;;;;;;;4.40;1.50;;;;;;;18.42;100.00;101641.84;5066540;28;20431;-82
2022/07/09 08:59:27;;;;;;;2.33;1.10;;;;;;;18.36;100.00;101641.13;5061445;28;20424;-82
2022/07/09 09:01:55;;;;;;;1.80;1.05;;;;;;;18.59;100.00;101634.84;5061905;28;20426;-83
2022/07/09 09:04:24;;;;;;;3.75;1.10;;;;;;;18.53;100.00;101634.97;5071453;28;20421;-83
2022/07/09 09:06:53;;;;;;;3.40;1.40;;;;;;;18.38;100.00;101632.56;5074155;28;20451;-83
2022/07/09 09:09:26;;;;;;;3.85;1.60;;;;;;;18.52;100.00;101627.81;5069191;28;20429;-82
2022/07/09 09:11:58;;;;;;;4.72;1.30;;;;;;;18.28;100.00;101641.03;5064515;28;20767;-81
2022/07/09 09:14:32;;;;;;;3.20;1.20;;;;;;;18.09;100.00;101636.50;5062469;28;20416;-82
2022/07/09 09:17:09;;;;;;;2.38;1.10;;;;;;;18.11;100.00;101636.97;5067310;28;20448;-81
2022/07/09 09:19:37;;;;;;;4.35;1.40;;;;;;;18.34;100.00;101629.59;5077274;28;20782;-82
2022/07/09 09:22:10;;;;;;;2.83;1.33;;;;;;;18.93;100.00;101619.72;5069559;28;20431;-81
2022/07/09 09:24:43;;;;;;;1.80;1.10;;;;;;;19.42;100.00;101620.69;5068111;28;20425;-82
2022/07/09 09:27:16;;;;;;;2.10;1.00;;;;;;;19.70;100.00;101620.47;5069423;28;20423;-82
2022/07/09 09:29:51;;;;;;;3.87;1.07;;;;;;;19.56;100.00;101628.88;5067133;28;20792;-85
2022/07/09 09:32:22;;;;;;;2.22;1.00;;;;;;;19.24;100.00;101622.53;5061329;28;20421;-82
2022/07/09 09:34:55;;;;;;;2.85;1.20;;;;;;;19.37;100.00;101618.88;5069037;28;20906;-83
2022/07/09 09:37:29;;;;;;;2.60;1.00;;;;;;;19.56;100.00;101612.28;5073387;28;20440;-83
2022/07/09 09:39:57;;;;;;;2.90;1.00;;;;;;;19.63;100.00;101618.16;5073434;28;20461;-82
2022/07/09 09:42:26;;;;;;;1.52;1.00;;;;;;;19.33;100.00;101617.06;5073236;28;20424;-81
2022/07/09 09:45:01;;;;;;;3.37;1.00;;;;;;;19.59;100.00;101611.66;5066312;28;20427;-82
2022/07/09 09:47:34;;;;;;;2.50;1.00;;;;;;;20.21;100.00;101613.47;5091138;28;20435;-82
2022/07/09 09:50:13;;;;;;;2.72;1.20;;;;;;;19.98;100.00;101600.91;5063413;28;20433;-84
2022/07/09 09:52:42;;;;;;;2.35;1.40;;;;;;;19.82;100.00;101611.63;5069783;28;20993;-82
2022/07/09 09:55:17;;;;;;;1.92;1.02;;;;;;;19.61;100.00;101609.41;5077930;28;20439;-81
2022/07/09 09:57:52;;;;;;;2.38;1.48;;;;;;;19.36;100.00;101599.84;5073658;28;20429;-84
2022/07/09 10:00:22;;;;;;;2.40;1.30;;;;;;;19.52;100.00;101595.53;5062083;28;20423;-83
2022/07/09 10:02:55;;;;;;;2.87;1.10;;;;;;;20.01;100.00;101594.75;5068175;28;20427;-82
2022/07/09 10:05:23;;;;;;;3.10;1.10;;;;;;;19.99;100.00;101592.31;5068390;28;20415;-84
2022/07/09 10:07:52;;;;;;;4.22;1.10;;;;;;;19.66;100.00;101600.16;5067594;28;20419;-82
2022/07/09 10:10:26;;;;;;;2.83;1.00;;;;;;;19.26;100.00;101597.38;5067304;28;20422;-81
2022/07/09 10:12:54;;;;;;;3.67;1.20;;;;;;;19.12;100.00;101600.22;5064554;28;21045;-83
2022/07/09 10:15:34;;;;;;;1.48;1.00;;;;;;;19.10;100.00;101592.25;5064905;28;20432;-84
2022/07/09 10:18:11;;;;;;;2.23;1.20;;;;;;;19.07;100.00;101592.06;5061305;28;20785;-83
2022/07/09 10:20:46;;;;;;;4.82;1.20;;;;;;;19.09;100.00;101593.38;5062990;28;20421;-85
2022/07/09 10:23:26;;;;;;;3.15;1.00;;;;;;;19.02;100.00;101598.53;5068868;28;20431;-85
2022/07/09 10:25:59;;;;;;;3.38;1.25;;;;;;;19.00;100.00;101601.63;5069182;28;20867;-86
2022/07/09 10:28:41;;;;;;;3.08;1.10;;;;;;;18.94;100.00;101602.88;5071301;28;20763;-88
2022/07/09 10:31:12;;;;;;;3.72;1.30;;;;;;;18.84;100.00;101598.38;5066097;28;20424;-87
2022/07/09 10:33:49;;;;;;;4.32;0.93;;;;;;;18.69;100.00;101593.25;5070235;28;20892;-86
2022/07/09 10:36:18;;;;;;;2.53;0.95;;;;;;;18.79;100.00;101595.75;5057431;28;20911;-87
2022/07/09 10:38:56;;;;;;;2.60;0.90;;;;;;;18.81;100.00;101587.16;5063114;28;20427;-85
2022/07/09 10:41:29;;;;;;;2.15;1.10;;;;;;;18.79;100.00;101590.22;5063898;28;20426;-88
2022/07/09 10:43:57;;;;;;;1.73;0.90;;;;;;;18.88;100.00;101587.59;5070959;28;20412;-86
2022/07/09 10:46:28;;;;;;;2.63;0.93;;;;;;;19.28;100.00;101578.53;5066418;28;20450;-84
2022/07/09 10:49:01;;;;;;;4.60;1.10;;;;;;;19.15;100.00;101567.28;5055384;28;20435;-86
2022/07/09 10:51:36;;;;;;;2.05;0.90;;;;;;;19.42;100.00;101572.94;5062262;28;20987;-87
2022/07/09 10:54:15;;;;;;;2.65;0.90;;;;;;;19.52;100.00;101576.22;5056062;28;20426;-85
2022/07/09 10:56:43;;;;;;;2.05;0.93;;;;;;;19.94;100.00;101575.06;5069514;28;20774;-85
2022/07/09 10:59:16;;;;;;;2.37;1.03;;;;;;;20.41;100.00;101567.00;5058653;28;20424;-84
2022/07/09 11:01:52;;;;;;;2.00;0.90;;;;;;;20.83;100.00;101550.72;5069103;28;20436;-88
2022/07/09 11:04:28;;;;;;;2.47;0.90;;;;;;;20.58;100.00;101548.75;5066827;28;20450;-87
2022/07/09 11:07:02;;;;;;;2.08;0.80;;;;;;;20.15;100.00;101553.16;5064882;28;20422;-84
2022/07/09 11:09:30;;;;;;;1.92;0.90;;;;;;;19.53;100.00;101572.34;5051774;28;20465;-84
2022/07/09 11:11:58;;;;;;;3.60;1.20;;;;;;;18.36;100.00;101586.00;5050174;28;20803;-87
2022/07/09 11:14:26;;;;;;;5.50;1.50;;;;;;;17.20;100.00;101608.16;5053807;28;20506;-90
2022/07/09 11:16:58;;;;;;;4.25;1.35;;;;;;;17.02;100.00;101603.53;5048097;28;20470;-90
2022/07/09 11:19:31;;;;;;;3.38;1.30;;;;;;;16.75;100.00;101605.00;5058407;28;20419;-87
2022/07/09 11:22:05;;;;;;;2.22;1.20;;;;;;;16.59;100.00;101608.00;5062522;28;20422;-90
2022/07/09 11:24:39;;;;;;;1.75;1.30;;;;;;;16.44;100.00;101610.97;5043585;28;20452;-90
2022/07/09 11:27:08;;;;;;;4.95;1.60;;;;;;;16.53;100.00;101602.88;5073046;28;20787;-93
2022/07/09 11:29:38;;;;;;;2.80;1.35;;;;;;;16.55;100.00;101595.16;5063343;28;20421;-91
2022/07/09 11:32:16;;;;;;;4.53;1.70;;;;;;;16.60;100.00;101595.06;5064991;28;20413;-91
2022/07/09 11:34:53;;;;;;;3.55;1.50;;;;;;;16.64;100.00;101590.59;5051001;28;20431;-90
2022/07/09 11:37:26;;;;;;;5.35;1.52;;;;;;;17.02;100.00;101587.84;5059838;28;20433;-90
2022/07/09 11:39:59;;;;;;;4.90;1.80;;;;;;;17.65;100.00;101580.88;5066114;28;20430;-91